createdAt,value
2019-03-21T00:00:27.281Z,69.77
2019-03-21T00:01:27.198Z,69.87
2019-03-21T00:02:27.121Z,69.96
2019-03-21T00:03:27.063Z,70.15
2019-03-21T00:04:26.990Z,69.68
2019-03-21T00:05:26.912Z,69.68
2019-03-21T00:06:26.837Z,69.68
2019-03-21T00:07:26.756Z,69.96
2019-03-21T00:08:26.685Z,70.00
2019-03-21T00:09:26.605Z,70.19
2019-03-21T00:10:26.535Z,69.43
2019-03-21T00:11:26.473Z,69.62
2019-03-21T00:12:26.400Z,69.23
2019-03-21T00:13:26.326Z,69.43
2019-03-21T00:14:26.259Z,69.43
2019-03-21T00:15:26.177Z,69.52
2019-03-21T00:16:26.100Z,69.71
2019-03-21T00:17:26.037Z,69.58
2019-03-21T00:18:25.961Z,70.15
2019-03-21T00:19:25.875Z,69.96
2019-03-21T00:20:25.803Z,69.96
2019-03-21T00:21:25.736Z,70.06
2019-03-21T00:22:25.664Z,70.34
2019-03-21T00:23:25.597Z,69.96
2019-03-21T00:24:25.525Z,70.06
2019-03-21T00:25:25.466Z,70.25
2019-03-21T00:26:25.366Z,70.34
2019-03-21T00:27:25.304Z,70.34
2019-03-21T00:28:25.226Z,70.25
2019-03-21T00:29:25.152Z,70.25
2019-03-21T00:30:25.087Z,70.06
2019-03-21T00:31:25.006Z,70.15
2019-03-21T00:32:24.921Z,69.96
2019-03-21T00:33:24.868Z,70.06
2019-03-21T00:34:24.800Z,70.25
2019-03-21T00:35:24.707Z,69.87
2019-03-21T00:36:24.630Z,70.25
2019-03-21T00:37:24.557Z,70.63
2019-03-21T00:38:24.486Z,70.34
2019-03-21T00:39:32.469Z,70.72
2019-03-21T00:40:24.352Z,71.20
2019-03-21T00:41:24.280Z,71.30
2019-03-21T00:42:24.206Z,71.36
2019-03-21T00:43:24.117Z,71.55
2019-03-21T00:44:24.045Z,71.55
2019-03-21T00:45:23.974Z,71.77
2019-03-21T00:46:23.894Z,71.96
2019-03-21T00:47:23.840Z,71.55
2019-03-21T00:48:23.767Z,71.68
2019-03-21T00:49:23.683Z,71.96
2019-03-21T00:50:23.609Z,71.39
2019-03-21T00:51:23.550Z,71.48
2019-03-21T00:52:23.464Z,71.39
2019-03-21T00:53:23.397Z,71.39
2019-03-21T00:54:23.326Z,70.82
2019-03-21T00:55:23.240Z,71.30
2019-03-21T00:56:23.988Z,70.82
2019-03-21T00:57:23.091Z,71.11
2019-03-21T00:58:23.016Z,71.39
2019-03-21T00:59:22.959Z,71.30
2019-03-21T01:00:22.882Z,71.01
2019-03-21T01:01:22.812Z,71.39
2019-03-21T01:02:22.731Z,71.20
2019-03-21T01:03:22.647Z,71.30
2019-03-21T01:04:22.572Z,71.30
2019-03-21T01:05:22.512Z,70.63
2019-03-21T01:06:22.446Z,70.82
2019-03-21T01:07:22.353Z,70.34
2019-03-21T01:08:22.286Z,70.53
2019-03-21T01:09:22.221Z,70.34
2019-03-21T01:10:22.133Z,70.72
2019-03-21T01:11:22.072Z,70.63
2019-03-21T01:12:22.006Z,70.82
2019-03-21T01:13:21.929Z,70.63
2019-03-21T01:14:29.820Z,70.72
2019-03-21T01:15:21.771Z,70.82
2019-03-21T01:16:21.700Z,70.34
2019-03-21T01:17:21.619Z,70.72
2019-03-21T01:18:21.623Z,71.48
2019-03-21T01:19:21.493Z,71.39
2019-03-21T01:20:21.422Z,71.11
2019-03-21T01:21:21.336Z,71.30
2019-03-21T01:22:21.259Z,71.48
2019-03-21T01:23:21.200Z,71.55
2019-03-21T01:24:21.123Z,72.31
2019-03-21T01:25:21.052Z,72.06
2019-03-21T01:26:20.990Z,72.12
2019-03-21T01:27:20.895Z,71.77
2019-03-21T01:28:20.827Z,71.68
2019-03-21T01:29:20.757Z,71.48
2019-03-21T01:30:20.690Z,71.20
2019-03-21T01:31:20.595Z,71.30
2019-03-21T01:32:20.521Z,71.39
2019-03-21T01:33:20.452Z,71.30
2019-03-21T01:34:20.379Z,71.30
2019-03-21T01:35:20.317Z,71.39
2019-03-21T01:36:20.254Z,71.30
2019-03-21T01:37:20.159Z,70.53
2019-03-21T01:38:20.089Z,70.82
2019-03-21T01:39:20.025Z,70.53
2019-03-21T01:40:19.952Z,70.53
2019-03-21T01:41:19.882Z,70.34
2019-03-21T01:42:19.804Z,70.44
2019-03-21T01:43:19.719Z,70.44
2019-03-21T01:44:19.645Z,70.00
2019-03-21T01:45:19.570Z,69.96
2019-03-21T01:46:19.503Z,70.15
2019-03-21T01:47:19.468Z,69.87
2019-03-21T01:48:19.367Z,70.06
2019-03-21T01:49:19.289Z,69.96
2019-03-21T01:50:19.218Z,70.44
2019-03-21T01:51:19.135Z,70.34
2019-03-21T01:52:19.061Z,70.63
2019-03-21T01:53:19.004Z,70.82
2019-03-21T01:54:18.932Z,70.34
2019-03-21T01:55:18.854Z,70.82
2019-03-21T01:56:18.793Z,71.30
2019-03-21T01:57:18.691Z,70.92
2019-03-21T01:58:18.622Z,71.20
2019-03-21T01:59:18.562Z,71.11
2019-03-21T02:00:18.488Z,71.30
2019-03-21T02:01:18.413Z,71.20
2019-03-21T02:02:18.337Z,71.39
2019-03-21T02:03:18.256Z,71.20
2019-03-21T02:04:18.177Z,71.30
2019-03-21T02:05:18.109Z,71.01
2019-03-21T02:06:18.033Z,70.82
2019-03-21T02:07:17.975Z,71.48
2019-03-21T02:08:17.904Z,71.58
2019-03-21T02:09:17.816Z,71.58
2019-03-21T02:10:17.743Z,71.83
2019-03-21T02:11:17.682Z,71.96
2019-03-21T02:12:17.613Z,71.58
2019-03-21T02:13:17.538Z,71.68
2019-03-21T02:14:17.462Z,71.39
2019-03-21T02:15:17.373Z,71.58
2019-03-21T02:16:17.305Z,71.48
2019-03-21T02:17:17.225Z,71.20
2019-03-21T02:18:17.155Z,71.58
2019-03-21T02:19:17.105Z,71.30
2019-03-21T02:20:17.025Z,71.48
2019-03-21T02:21:16.948Z,71.01
2019-03-21T02:22:16.874Z,71.68
2019-03-21T02:23:16.791Z,71.68
2019-03-21T02:24:16.713Z,71.68
2019-03-21T02:25:16.655Z,71.39
2019-03-21T02:26:16.588Z,71.30
2019-03-21T02:27:16.497Z,71.48
2019-03-21T02:28:16.424Z,71.48
2019-03-21T02:29:16.347Z,71.36
2019-03-21T02:30:16.276Z,71.55
2019-03-21T02:31:16.223Z,71.55
2019-03-21T02:32:16.142Z,71.83
2019-03-21T02:33:16.056Z,71.73
2019-03-21T02:34:15.975Z,72.02
2019-03-21T02:35:15.928Z,72.21
2019-03-21T02:36:15.848Z,72.02
2019-03-21T02:37:15.773Z,72.21
2019-03-21T02:38:15.707Z,72.31
2019-03-21T02:39:15.715Z,72.21
2019-03-21T02:40:15.538Z,72.88
2019-03-21T02:41:15.483Z,72.78
2019-03-21T02:42:15.399Z,72.02
2019-03-21T02:43:15.318Z,72.02
2019-03-21T02:44:15.250Z,72.31
2019-03-21T02:45:15.207Z,72.21
2019-03-21T02:46:15.120Z,72.12
2019-03-21T02:47:15.037Z,72.12
2019-03-21T02:48:15.013Z,72.21
2019-03-21T02:49:14.888Z,72.02
2019-03-21T02:50:14.817Z,71.93
2019-03-21T02:51:14.729Z,72.50
2019-03-21T02:52:14.654Z,72.50
2019-03-21T02:53:14.582Z,72.88
2019-03-21T02:54:14.508Z,72.12
2019-03-21T02:55:14.445Z,72.12
2019-03-21T02:56:14.368Z,71.55
2019-03-21T02:57:14.284Z,71.68
2019-03-21T02:58:14.207Z,71.58
2019-03-21T02:59:14.153Z,71.39
2019-03-21T03:00:14.072Z,71.48
2019-03-21T03:01:14.005Z,71.11
2019-03-21T03:02:13.931Z,71.20
2019-03-21T03:03:13.843Z,71.68
2019-03-21T03:04:13.766Z,71.73
2019-03-21T03:05:13.698Z,71.26
2019-03-21T03:06:13.622Z,71.36
2019-03-21T03:07:13.561Z,71.55
2019-03-21T03:08:13.485Z,71.93
2019-03-21T03:09:13.414Z,71.64
2019-03-21T03:10:13.366Z,71.64
2019-03-21T03:11:13.251Z,71.64
2019-03-21T03:12:13.180Z,71.96
2019-03-21T03:13:13.130Z,71.73
2019-03-21T03:14:13.048Z,72.02
2019-03-21T03:15:22.832Z,71.64
2019-03-21T03:16:12.889Z,71.64
2019-03-21T03:17:12.812Z,71.64
2019-03-21T03:18:12.736Z,71.93
2019-03-21T03:19:12.679Z,71.64
2019-03-21T03:20:12.600Z,71.87
2019-03-21T03:21:12.532Z,71.58
2019-03-21T03:22:12.457Z,71.30
2019-03-21T03:23:12.380Z,71.48
2019-03-21T03:24:12.295Z,71.11
2019-03-21T03:25:12.223Z,71.48
2019-03-21T03:26:12.152Z,71.68
2019-03-21T03:27:12.086Z,71.58
2019-03-21T03:28:12.015Z,71.30
2019-03-21T03:29:11.941Z,71.30
2019-03-21T03:30:11.872Z,71.48
2019-03-21T03:31:11.800Z,71.39
2019-03-21T03:32:11.723Z,71.55
2019-03-21T03:33:11.650Z,71.93
2019-03-21T03:34:11.578Z,71.64
2019-03-21T03:35:11.501Z,71.83
2019-03-21T03:36:11.430Z,71.64
2019-03-21T03:37:11.355Z,71.83
2019-03-21T03:38:11.281Z,72.60
2019-03-21T03:39:11.192Z,72.02
2019-03-21T03:40:11.121Z,72.12
2019-03-21T03:41:11.049Z,71.89
2019-03-21T03:42:10.974Z,72.75
2019-03-21T03:43:10.910Z,72.85
2019-03-21T03:44:10.833Z,72.65
2019-03-21T03:45:10.754Z,72.65
2019-03-21T03:46:10.675Z,72.85
2019-03-21T03:47:10.619Z,72.60
2019-03-21T03:48:10.545Z,72.78
2019-03-21T03:49:10.473Z,72.69
2019-03-21T03:50:10.397Z,72.60
2019-03-21T03:51:10.310Z,72.88
2019-03-21T03:52:10.240Z,72.02
2019-03-21T03:53:10.163Z,72.02
2019-03-21T03:54:10.086Z,71.93
2019-03-21T03:55:10.029Z,71.73
2019-03-21T03:56:09.951Z,72.02
2019-03-21T03:57:09.883Z,71.83
2019-03-21T03:58:09.809Z,71.48
2019-03-21T03:59:09.726Z,71.39
2019-03-21T04:00:09.643Z,71.30
2019-03-21T04:01:09.595Z,71.01
2019-03-21T04:02:09.515Z,71.39
2019-03-21T04:03:09.425Z,70.92
2019-03-21T04:04:09.356Z,71.11
2019-03-21T04:05:09.276Z,71.20
2019-03-21T04:06:09.219Z,71.58
2019-03-21T04:07:09.145Z,71.20
2019-03-21T04:08:09.073Z,71.01
2019-03-21T04:09:08.987Z,71.30
2019-03-21T04:10:08.911Z,71.20
2019-03-21T04:11:08.848Z,71.36
2019-03-21T04:12:08.780Z,72.12
2019-03-21T04:13:08.705Z,72.50
2019-03-21T04:14:08.627Z,72.97
2019-03-21T04:15:08.545Z,72.65
2019-03-21T04:16:08.481Z,72.65
2019-03-21T04:17:08.435Z,73.03
2019-03-21T04:18:08.341Z,73.07
2019-03-21T04:19:08.253Z,72.69
2019-03-21T04:20:08.176Z,72.78
2019-03-21T04:21:08.109Z,72.88
2019-03-21T04:22:08.028Z,72.78
2019-03-21T04:23:07.970Z,72.88
2019-03-21T04:24:07.893Z,73.17
2019-03-21T04:25:07.818Z,72.78
2019-03-21T04:26:07.745Z,72.60
2019-03-21T04:27:07.664Z,73.17
2019-03-21T04:28:07.589Z,72.97
2019-03-21T04:29:07.513Z,72.75
2019-03-21T04:30:07.435Z,72.85
2019-03-21T04:31:07.376Z,73.22
2019-03-21T04:32:07.305Z,73.51
2019-03-21T04:33:07.233Z,74.27
2019-03-21T04:34:07.168Z,73.99
2019-03-21T04:35:07.083Z,73.70
2019-03-21T04:36:07.005Z,73.89
2019-03-21T04:37:06.936Z,73.89
2019-03-21T04:38:06.861Z,74.08
2019-03-21T04:39:06.783Z,73.99
2019-03-21T04:40:06.704Z,73.99
2019-03-21T04:41:06.634Z,73.80
2019-03-21T04:42:06.564Z,74.18
2019-03-21T04:43:06.477Z,73.99
2019-03-21T04:44:06.410Z,73.89
2019-03-21T04:45:06.326Z,74.08
2019-03-21T04:46:06.263Z,73.99
2019-03-21T04:47:06.197Z,74.27
2019-03-21T04:48:06.119Z,73.99
2019-03-21T04:49:06.037Z,73.99
2019-03-21T04:50:05.955Z,73.80
2019-03-21T04:51:05.892Z,74.08
2019-03-21T04:52:05.820Z,74.18
2019-03-21T04:53:05.747Z,74.18
2019-03-21T04:54:05.677Z,73.89
2019-03-21T04:55:05.604Z,73.80
2019-03-21T04:56:05.510Z,74.46
2019-03-21T04:57:05.437Z,73.51
2019-03-21T04:58:05.366Z,73.80
2019-03-21T04:59:05.303Z,73.89
2019-03-21T05:00:05.229Z,73.80
2019-03-21T05:01:05.156Z,73.99
2019-03-21T05:02:05.078Z,73.99
2019-03-21T05:03:04.995Z,74.08
2019-03-21T05:04:04.916Z,74.18
2019-03-21T05:05:04.854Z,73.80
2019-03-21T05:06:04.791Z,74.18
2019-03-21T05:07:04.696Z,74.65
2019-03-21T05:08:04.623Z,73.99
2019-03-21T05:09:04.549Z,74.08
2019-03-21T05:10:04.477Z,73.99
2019-03-21T05:11:04.417Z,73.99
2019-03-21T05:12:04.339Z,74.08
2019-03-21T05:13:04.263Z,73.51
2019-03-21T05:14:04.188Z,73.99
2019-03-21T05:15:04.104Z,74.08
2019-03-21T05:16:14.242Z,74.08
2019-03-21T05:17:03.957Z,74.18
2019-03-21T05:18:03.876Z,74.08
2019-03-21T05:19:03.813Z,73.89
2019-03-21T05:20:03.740Z,74.18
2019-03-21T05:21:03.657Z,73.99
2019-03-21T05:22:03.582Z,74.27
2019-03-21T05:23:03.534Z,74.08
2019-03-21T05:24:03.441Z,74.08
2019-03-21T05:25:03.371Z,74.08
2019-03-21T05:26:04.219Z,73.80
2019-03-21T05:27:03.212Z,74.08
2019-03-21T05:28:03.136Z,74.27
2019-03-21T05:29:03.057Z,74.62
2019-03-21T05:30:02.991Z,74.56
2019-03-21T05:31:02.933Z,74.37
2019-03-21T05:32:03.919Z,74.24
2019-03-21T05:33:02.789Z,74.80
2019-03-21T05:34:02.701Z,74.62
2019-03-21T05:35:02.618Z,74.99
2019-03-21T05:36:02.541Z,75.38
2019-03-21T05:37:02.487Z,75.19
2019-03-21T05:38:02.411Z,75.28
2019-03-21T05:39:02.320Z,75.09
2019-03-21T05:40:02.247Z,75.38
2019-03-21T05:41:02.166Z,74.99
2019-03-21T05:42:02.109Z,74.84
2019-03-21T05:43:02.080Z,75.28
2019-03-21T05:44:01.957Z,75.85
2019-03-21T05:45:01.876Z,76.04
2019-03-21T05:46:01.801Z,76.76
2019-03-21T05:47:01.736Z,76.96
2019-03-21T05:48:01.655Z,77.97
2019-03-21T05:49:01.582Z,78.53
2019-03-21T05:50:01.507Z,79.39
2019-03-21T05:51:01.427Z,79.49
2019-03-21T05:52:01.343Z,79.58
2019-03-21T05:53:01.287Z,79.77
2019-03-21T05:54:01.214Z,79.77
2019-03-21T05:55:01.126Z,80.15
2019-03-21T05:56:01.049Z,79.73
2019-03-21T05:57:00.971Z,80.58
2019-03-21T05:58:00.899Z,80.53
2019-03-21T05:59:00.846Z,79.86
2019-03-21T06:00:00.775Z,79.96
2019-03-21T06:01:00.685Z,80.63
2019-03-21T06:02:00.606Z,79.68
2019-03-21T06:03:00.523Z,79.62
2019-03-21T06:04:00.450Z,79.72
2019-03-21T06:05:00.373Z,79.14
2019-03-21T06:06:00.306Z,78.86
2019-03-21T06:07:00.232Z,78.29
2019-03-21T06:08:00.163Z,78.10
2019-03-21T06:09:00.070Z,77.91
2019-03-21T06:09:59.995Z,78.00
2019-03-21T06:10:59.933Z,77.91
2019-03-21T06:11:59.855Z,78.38
2019-03-21T06:12:59.789Z,78.00
2019-03-21T06:13:59.707Z,78.29
2019-03-21T06:14:59.621Z,79.05
2019-03-21T06:15:59.544Z,78.86
2019-03-21T06:16:59.472Z,79.24
2019-03-21T06:17:59.394Z,79.30
2019-03-21T06:18:59.332Z,79.77
2019-03-21T06:19:59.257Z,79.39
2019-03-21T06:20:59.184Z,79.68
2019-03-21T06:21:59.128Z,80.53
2019-03-21T06:22:59.021Z,80.24
2019-03-21T06:23:58.943Z,80.82
2019-03-21T06:24:58.880Z,81.10
2019-03-21T06:25:58.808Z,81.20
2019-03-21T06:26:58.722Z,81.29
2019-03-21T06:27:58.648Z,80.91
2019-03-21T06:28:58.582Z,80.15
2019-03-21T06:29:58.495Z,80.24
2019-03-21T06:30:58.435Z,79.72
2019-03-21T06:31:58.354Z,79.33
2019-03-21T06:32:58.279Z,78.96
2019-03-21T06:33:58.205Z,79.14
2019-03-21T06:34:58.119Z,78.57
2019-03-21T06:35:58.055Z,78.48
2019-03-21T06:36:57.968Z,78.00
2019-03-21T06:37:57.898Z,78.19
2019-03-21T06:38:57.832Z,78.48
2019-03-21T06:39:57.762Z,77.53
2019-03-21T06:40:57.674Z,77.72
2019-03-21T06:41:57.587Z,77.95
2019-03-21T06:42:57.535Z,77.81
2019-03-21T06:43:57.451Z,77.66
2019-03-21T06:44:57.402Z,76.81
2019-03-21T06:45:57.299Z,77.09
2019-03-21T06:46:57.218Z,76.61
2019-03-21T06:47:57.142Z,77.00
2019-03-21T06:48:57.079Z,76.81
2019-03-21T06:49:57.008Z,76.81
2019-03-21T06:50:56.915Z,76.81
2019-03-21T06:51:56.838Z,76.90
2019-03-21T06:52:56.767Z,76.81
2019-03-21T06:53:56.695Z,76.71
2019-03-21T06:54:56.633Z,76.90
2019-03-21T06:55:56.562Z,76.90
2019-03-21T06:56:56.468Z,76.61
2019-03-21T06:57:56.392Z,76.81
2019-03-21T06:58:56.330Z,76.14
2019-03-21T06:59:56.258Z,76.33
2019-03-21T07:00:56.182Z,76.08
2019-03-21T07:01:56.107Z,75.32
2019-03-21T07:02:56.033Z,75.67
2019-03-21T07:04:06.618Z,75.67
2019-03-21T07:04:55.875Z,75.76
2019-03-21T07:05:55.808Z,75.76
2019-03-21T07:06:59.469Z,75.85
2019-03-21T07:07:55.660Z,76.33
2019-03-21T07:08:55.586Z,76.04
2019-03-21T07:09:55.513Z,76.42
2019-03-21T07:10:55.429Z,76.33
2019-03-21T07:11:55.360Z,76.33
2019-03-21T07:12:55.299Z,76.42
2019-03-21T07:13:55.215Z,76.42
2019-03-21T07:14:55.130Z,76.52
2019-03-21T07:15:55.057Z,76.52
2019-03-21T07:17:00.302Z,76.52
2019-03-21T07:17:54.917Z,76.71
2019-03-21T07:18:54.849Z,76.23
2019-03-21T07:19:54.776Z,76.04
2019-03-21T07:20:54.701Z,76.23
2019-03-21T07:21:54.665Z,75.95
2019-03-21T07:22:54.549Z,75.76
2019-03-21T07:23:54.466Z,75.76
2019-03-21T07:24:54.387Z,75.67
2019-03-21T07:25:54.336Z,75.51
2019-03-21T07:26:54.256Z,75.04
2019-03-21T07:27:54.166Z,75.23
2019-03-21T07:28:54.098Z,75.60
2019-03-21T07:29:54.038Z,75.23
2019-03-21T07:30:53.967Z,74.75
2019-03-21T07:31:53.891Z,74.08
2019-03-21T07:32:53.819Z,74.18
2019-03-21T07:33:53.744Z,74.31
2019-03-21T07:34:53.672Z,73.61
2019-03-21T07:35:53.585Z,73.83
2019-03-21T07:36:53.519Z,73.74
2019-03-21T07:37:53.449Z,74.18
2019-03-21T07:38:53.379Z,73.99
2019-03-21T07:39:53.302Z,73.65
2019-03-21T07:40:53.241Z,73.83
2019-03-21T07:41:53.144Z,73.17
2019-03-21T07:42:53.078Z,73.07
2019-03-21T07:43:53.008Z,73.17
2019-03-21T07:44:52.970Z,73.17
2019-03-21T07:45:52.856Z,72.78
2019-03-21T07:46:52.780Z,73.17
2019-03-21T07:47:52.708Z,73.17
2019-03-21T07:48:52.637Z,73.17
2019-03-21T07:49:52.576Z,73.55
2019-03-21T07:50:52.503Z,74.02
2019-03-21T07:51:52.444Z,73.74
2019-03-21T07:52:52.347Z,73.65
2019-03-21T07:53:52.292Z,74.12
2019-03-21T07:54:52.217Z,74.31
2019-03-21T07:55:52.143Z,73.74
2019-03-21T07:56:52.298Z,74.12
2019-03-21T07:57:51.988Z,73.45
2019-03-21T07:58:51.914Z,73.74
2019-03-21T07:59:51.847Z,73.39
2019-03-21T08:00:51.783Z,73.11
2019-03-21T08:01:51.696Z,72.53
2019-03-21T08:02:51.620Z,72.72
2019-03-21T08:03:51.560Z,72.92
2019-03-21T08:04:51.481Z,73.21
2019-03-21T08:05:51.427Z,72.82
2019-03-21T08:06:51.345Z,72.63
2019-03-21T08:07:51.272Z,72.34
2019-03-21T08:08:51.201Z,72.25
2019-03-21T08:09:51.118Z,71.77
2019-03-21T08:10:51.046Z,71.68
2019-03-21T08:11:50.980Z,72.34
2019-03-21T08:12:50.908Z,72.44
2019-03-21T08:13:50.849Z,72.34
2019-03-21T08:14:50.781Z,71.33
2019-03-21T08:15:50.687Z,71.62
2019-03-21T08:16:50.618Z,71.62
2019-03-21T08:17:50.577Z,71.52
2019-03-21T08:18:50.489Z,71.23
2019-03-21T08:19:50.413Z,71.68
2019-03-21T08:20:56.468Z,71.72
2019-03-21T08:21:50.266Z,71.33
2019-03-21T08:22:50.192Z,71.43
2019-03-21T08:23:50.134Z,70.95
2019-03-21T08:24:50.057Z,71.04
2019-03-21T08:25:49.975Z,70.86
2019-03-21T08:26:49.904Z,71.04
2019-03-21T08:27:51.816Z,70.86
2019-03-21T08:28:49.762Z,70.95
2019-03-21T08:29:49.700Z,70.76
2019-03-21T08:30:49.634Z,70.67
2019-03-21T08:31:49.550Z,70.67
2019-03-21T08:32:49.472Z,70.57
2019-03-21T08:33:49.414Z,70.76
2019-03-21T08:34:49.350Z,70.57
2019-03-21T08:35:49.281Z,71.27
2019-03-21T08:36:49.200Z,70.95
2019-03-21T08:37:49.120Z,70.51
2019-03-21T08:38:49.050Z,70.51
2019-03-21T08:39:48.978Z,70.22
2019-03-21T08:40:48.902Z,70.13
2019-03-21T08:41:48.848Z,70.13
2019-03-21T08:42:48.780Z,70.22
2019-03-21T08:43:48.705Z,69.74
2019-03-21T08:44:48.632Z,70.03
2019-03-21T08:45:48.548Z,69.31
2019-03-21T08:46:48.482Z,69.40
2019-03-21T08:47:48.424Z,69.08
2019-03-21T08:48:48.353Z,69.84
2019-03-21T08:49:48.272Z,70.57
2019-03-21T08:50:48.196Z,70.67
2019-03-21T08:51:48.132Z,70.09
2019-03-21T08:52:48.065Z,70.76
2019-03-21T08:53:48.011Z,70.76
2019-03-21T08:54:47.974Z,70.38
2019-03-21T08:55:47.840Z,70.67
2019-03-21T08:56:47.776Z,70.42
2019-03-21T08:57:47.712Z,70.51
2019-03-21T08:58:47.640Z,70.51
2019-03-21T08:59:48.088Z,69.93
2019-03-21T09:00:47.510Z,70.03
2019-03-21T09:01:47.434Z,70.13
2019-03-21T09:02:47.507Z,70.22
2019-03-21T09:03:47.290Z,70.13
2019-03-21T09:04:47.225Z,70.03
2019-03-21T09:05:47.140Z,70.32
2019-03-21T09:06:47.068Z,70.79
2019-03-21T09:07:46.996Z,71.33
2019-03-21T09:08:46.924Z,71.04
2019-03-21T09:09:46.871Z,71.27
2019-03-21T09:10:46.793Z,71.27
2019-03-21T09:11:46.727Z,70.98
2019-03-21T09:12:46.656Z,70.61
2019-03-21T09:13:46.578Z,70.22
2019-03-21T09:14:46.500Z,70.42
2019-03-21T09:15:46.428Z,70.00
2019-03-21T09:16:46.360Z,70.89
2019-03-21T09:17:46.305Z,70.70
2019-03-21T09:18:46.236Z,70.98
2019-03-21T09:19:46.150Z,70.22
2019-03-21T09:20:46.078Z,70.03
2019-03-21T09:21:46.023Z,70.07
2019-03-21T09:22:45.955Z,69.68
2019-03-21T09:23:45.880Z,69.87
2019-03-21T09:24:45.808Z,69.31
2019-03-21T09:25:45.728Z,69.11
2019-03-21T09:26:45.656Z,69.97
2019-03-21T09:27:45.582Z,69.59
2019-03-21T09:28:45.514Z,69.78
2019-03-21T09:29:53.416Z,69.78
2019-03-21T09:30:45.387Z,68.82
2019-03-21T09:31:45.315Z,69.31
2019-03-21T09:32:45.249Z,68.86
2019-03-21T09:33:45.164Z,68.48
2019-03-21T09:34:45.092Z,68.38
2019-03-21T09:35:45.034Z,68.29
2019-03-21T09:36:44.970Z,68.29
2019-03-21T09:37:44.887Z,68.38
2019-03-21T09:38:44.816Z,68.19
2019-03-21T09:39:44.746Z,68.10
2019-03-21T09:40:44.677Z,68.00
2019-03-21T09:41:44.619Z,68.48
2019-03-21T09:42:44.549Z,67.71
2019-03-21T09:43:44.478Z,67.65
2019-03-21T09:44:44.404Z,67.65
2019-03-21T09:45:44.335Z,66.89
2019-03-21T09:46:50.827Z,66.70
2019-03-21T09:47:44.192Z,66.89
2019-03-21T09:48:44.116Z,66.70
2019-03-21T09:49:44.063Z,66.50
2019-03-21T09:50:43.985Z,66.50
2019-03-21T09:51:43.916Z,66.19
2019-03-21T09:52:43.837Z,66.92
2019-03-21T09:53:43.792Z,67.49
2019-03-21T09:54:43.708Z,67.40
2019-03-21T09:55:43.643Z,67.87
2019-03-21T09:56:43.572Z,68.73
2019-03-21T09:57:43.493Z,68.63
2019-03-21T09:58:43.417Z,68.63
2019-03-21T09:59:43.359Z,68.38
2019-03-21T10:00:43.289Z,68.10
2019-03-21T10:01:43.208Z,68.29
2019-03-21T10:02:43.145Z,67.71
2019-03-21T10:03:43.072Z,67.81
2019-03-21T10:04:43.000Z,68.10
2019-03-21T10:05:42.940Z,67.33
2019-03-21T10:06:42.875Z,67.81
2019-03-21T10:07:42.788Z,67.65
2019-03-21T10:08:42.722Z,66.70
2019-03-21T10:09:42.669Z,66.60
2019-03-21T10:10:42.621Z,66.50
2019-03-21T10:11:42.527Z,66.79
2019-03-21T10:12:42.454Z,66.41
2019-03-21T10:13:42.389Z,66.22
2019-03-21T10:14:42.312Z,66.22
2019-03-21T10:15:42.236Z,65.55
2019-03-21T10:16:42.166Z,65.64
2019-03-21T10:17:42.114Z,65.74
2019-03-21T10:18:42.038Z,65.64
2019-03-21T10:19:41.974Z,66.25
2019-03-21T10:20:41.898Z,65.58
2019-03-21T10:21:43.589Z,65.39
2019-03-21T10:22:41.752Z,64.62
2019-03-21T10:23:41.699Z,64.62
2019-03-21T10:24:41.627Z,65.30
2019-03-21T10:25:41.542Z,65.68
2019-03-21T10:26:41.472Z,65.68
2019-03-21T10:27:41.402Z,65.11
2019-03-21T10:28:41.334Z,64.62
2019-03-21T10:29:41.280Z,64.91
2019-03-21T10:30:41.214Z,64.25
2019-03-21T10:31:41.132Z,63.96
2019-03-21T10:32:41.058Z,64.05
2019-03-21T10:33:41.003Z,63.96
2019-03-21T10:34:40.939Z,63.57
2019-03-21T10:35:40.865Z,63.76
2019-03-21T10:36:40.801Z,63.70
2019-03-21T10:37:40.718Z,63.51
2019-03-21T10:38:40.646Z,63.89
2019-03-21T10:39:40.588Z,63.60
2019-03-21T10:40:40.529Z,62.84
2019-03-21T10:41:40.449Z,62.94
2019-03-21T10:42:40.372Z,62.94
2019-03-21T10:43:40.302Z,62.74
2019-03-21T10:44:40.236Z,62.84
2019-03-21T10:45:40.181Z,63.23
2019-03-21T10:46:40.112Z,63.00
2019-03-21T10:47:40.042Z,63.42
2019-03-21T10:48:39.974Z,63.10
2019-03-21T10:49:39.895Z,63.19
2019-03-21T10:50:39.831Z,63.19
2019-03-21T10:51:39.756Z,63.03
2019-03-21T10:52:39.682Z,63.60
2019-03-21T10:53:39.630Z,63.03
2019-03-21T10:54:39.566Z,62.94
2019-03-21T10:55:39.493Z,62.84
2019-03-21T10:56:39.408Z,62.94
2019-03-21T10:57:39.356Z,62.74
2019-03-21T10:58:39.284Z,62.84
2019-03-21T10:59:39.219Z,62.65
2019-03-21T11:00:39.155Z,62.84
2019-03-21T11:01:39.066Z,62.81
2019-03-21T11:02:38.998Z,63.57
2019-03-21T11:03:38.947Z,63.64
2019-03-21T11:04:38.875Z,63.45
2019-03-21T11:05:38.792Z,63.76
2019-03-21T11:06:38.726Z,63.57
2019-03-21T11:07:38.657Z,63.86
2019-03-21T11:08:38.585Z,63.19
2019-03-21T11:09:38.530Z,63.29
2019-03-21T11:10:38.466Z,63.13
2019-03-21T11:11:38.378Z,63.03
2019-03-21T11:12:38.314Z,62.90
2019-03-21T11:13:38.255Z,62.84
2019-03-21T11:14:38.188Z,63.13
2019-03-21T11:15:38.116Z,62.81
2019-03-21T11:16:38.139Z,62.84
2019-03-21T11:17:37.972Z,62.94
2019-03-21T11:18:37.896Z,62.84
2019-03-21T11:19:37.832Z,63.13
2019-03-21T11:20:37.766Z,62.81
2019-03-21T11:21:37.705Z,62.62
2019-03-21T11:22:37.641Z,62.81
2019-03-21T11:23:37.569Z,62.81
2019-03-21T11:24:37.498Z,63.57
2019-03-21T11:25:37.417Z,63.19
2019-03-21T11:26:37.354Z,63.86
2019-03-21T11:27:37.289Z,63.00
2019-03-21T11:28:37.222Z,62.81
2019-03-21T11:29:37.142Z,63.00
2019-03-21T11:30:37.079Z,62.52
2019-03-21T11:31:37.004Z,62.33
2019-03-21T11:32:36.937Z,62.33
2019-03-21T11:33:36.879Z,61.19
2019-03-21T11:34:36.806Z,61.69
2019-03-21T11:35:36.735Z,61.60
2019-03-21T11:36:38.608Z,61.66
2019-03-21T11:37:36.588Z,61.57
2019-03-21T11:38:36.524Z,61.19
2019-03-21T11:39:36.452Z,61.47
2019-03-21T11:40:36.388Z,61.76
2019-03-21T11:41:36.324Z,61.69
2019-03-21T11:42:36.270Z,61.79
2019-03-21T11:43:36.178Z,60.99
2019-03-21T11:44:36.102Z,61.79
2019-03-21T11:45:36.052Z,61.38
2019-03-21T11:46:35.980Z,61.47
2019-03-21T11:47:41.855Z,61.28
2019-03-21T11:48:35.847Z,61.47
2019-03-21T11:49:35.767Z,61.31
2019-03-21T11:50:35.776Z,60.83
2019-03-21T11:51:35.624Z,60.74
2019-03-21T11:52:35.554Z,60.83
2019-03-21T11:53:35.499Z,60.74
2019-03-21T11:54:35.434Z,60.45
2019-03-21T11:55:35.385Z,60.35
2019-03-21T11:56:35.303Z,59.40
2019-03-21T11:57:35.214Z,59.30
2019-03-21T11:58:35.142Z,58.76
2019-03-21T11:59:46.505Z,58.18
2019-03-21T12:00:43.027Z,58.56
2019-03-21T12:01:34.935Z,58.28
2019-03-21T12:02:34.864Z,58.09
2019-03-21T12:03:34.796Z,58.66
2019-03-21T12:04:34.725Z,58.56
2019-03-21T12:05:34.670Z,58.28
2019-03-21T12:06:34.597Z,58.56
2019-03-21T12:07:34.530Z,58.66
2019-03-21T12:08:34.452Z,58.28
2019-03-21T12:09:34.403Z,59.30
2019-03-21T12:10:34.326Z,58.92
2019-03-21T12:11:34.260Z,58.83
2019-03-21T12:12:34.185Z,59.40
2019-03-21T12:13:34.113Z,59.49
2019-03-21T12:14:34.038Z,59.40
2019-03-21T12:15:33.981Z,59.20
2019-03-21T12:16:33.911Z,59.11
2019-03-21T12:17:33.834Z,59.33
2019-03-21T12:18:33.760Z,59.05
2019-03-21T12:19:33.697Z,59.33
2019-03-21T12:20:33.624Z,58.47
2019-03-21T12:21:33.566Z,58.28
2019-03-21T12:22:33.505Z,58.66
2019-03-21T12:23:33.431Z,59.33
2019-03-21T12:24:33.353Z,59.33
2019-03-21T12:25:33.279Z,58.95
2019-03-21T12:26:33.222Z,59.14
2019-03-21T12:27:33.140Z,59.23
2019-03-21T12:28:33.068Z,59.14
2019-03-21T12:29:33.009Z,58.28
2019-03-21T12:30:32.942Z,58.18
2019-03-21T12:31:32.860Z,58.47
2019-03-21T12:32:32.792Z,57.23
2019-03-21T12:33:32.735Z,57.32
2019-03-21T12:34:32.668Z,57.42
2019-03-21T12:35:32.682Z,57.32
2019-03-21T12:36:32.522Z,57.32
2019-03-21T12:37:32.444Z,57.04
2019-03-21T12:38:32.399Z,57.42
2019-03-21T12:39:32.361Z,57.70
2019-03-21T12:40:32.267Z,57.73
2019-03-21T12:41:32.168Z,57.64
2019-03-21T12:42:32.096Z,57.35
2019-03-21T12:43:32.035Z,56.59
2019-03-21T12:44:31.962Z,56.30
2019-03-21T12:45:31.902Z,55.82
2019-03-21T12:46:31.838Z,55.34
2019-03-21T12:47:32.055Z,55.05
2019-03-21T12:48:31.685Z,55.91
2019-03-21T12:49:31.632Z,55.24
2019-03-21T12:50:31.561Z,55.24
2019-03-21T12:51:31.488Z,55.24